Decoded Metar for OISY ( in _UNIDENTIFIED) (IATA:N/A) | Meteo·Mobile Aviation Weather
aviador You're here:

OISY Decoded Metar

in _UNIDENTIFIED
Report Time2018-11-18 20:00:00
UTC Time2018-11-18 20:56:54
Flight Rules vfr VFR
WindCalm
Visibility9999 m
Phenomena:N/A
Clouds:N/A
Expected CloudBase > 2,000 ft AGL from Temp-Dew spread
CeilingNone
Temp06°C
Dew Point01°C (71% RH)
AAT4.2°C
QNH1024 hPa
Raw Report
METAR OISY 182000Z 00000KT CAVOK 06/01 Q1024=

Extra information for OISY:More info

Metar Taf Metar & Taf Last 4 Metars F.Rules Stats Wind Profile Meteogram Temp Stats Metar ALERT Operation Metar Decoded Social comments